createdAt,value
2022-10-06T00:00:47.279Z,99.90
2022-10-06T00:05:46.401Z,99.90
2022-10-06T00:10:45.330Z,99.90
2022-10-06T00:15:44.324Z,99.90
2022-10-06T00:20:43.434Z,99.90
2022-10-06T00:25:42.306Z,99.90
2022-10-06T00:30:41.421Z,99.90
2022-10-06T00:35:40.334Z,99.90
2022-10-06T00:40:39.410Z,99.90
2022-10-06T00:45:38.454Z,99.90
2022-10-06T00:50:37.487Z,99.90
2022-10-06T00:55:36.690Z,99.90
2022-10-06T01:00:36.189Z,99.90
2022-10-06T01:05:35.414Z,99.90
2022-10-06T01:10:34.436Z,99.90
2022-10-06T01:15:33.579Z,99.90
2022-10-06T01:20:32.340Z,99.90
2022-10-06T01:25:31.550Z,99.90
2022-10-06T01:30:30.394Z,99.90
2022-10-06T01:35:29.380Z,99.90
2022-10-06T01:40:30.467Z,99.90
2022-10-06T01:45:29.360Z,99.90
2022-10-06T01:50:28.372Z,99.90
2022-10-06T01:55:28.484Z,99.90
2022-10-06T02:00:27.407Z,99.90
2022-10-06T02:05:27.219Z,99.90
2022-10-06T02:10:27.062Z,99.90
2022-10-06T02:15:27.868Z,99.90
2022-10-06T02:20:26.330Z,99.90
2022-10-06T02:25:25.840Z,99.90
2022-10-06T02:30:24.603Z,99.90
2022-10-06T02:35:23.714Z,99.90
2022-10-06T02:40:22.711Z,99.90
2022-10-06T02:45:21.687Z,99.90
2022-10-06T02:50:20.599Z,99.90
2022-10-06T02:55:19.473Z,99.90
2022-10-06T03:00:20.338Z,99.90
2022-10-06T03:05:19.566Z,99.90
2022-10-06T03:10:18.494Z,99.90
2022-10-06T03:15:19.108Z,99.90
2022-10-06T03:20:18.746Z,99.90
2022-10-06T03:25:18.760Z,99.90
2022-10-06T03:30:17.926Z,99.90
2022-10-06T03:35:18.155Z,99.90
2022-10-06T03:40:17.838Z,99.90
2022-10-06T03:45:16.374Z,99.90
2022-10-06T03:50:15.889Z,99.90
2022-10-06T03:55:14.822Z,99.90
2022-10-06T04:00:13.150Z,99.90
2022-10-06T04:05:12.627Z,99.90
2022-10-06T04:10:13.310Z,99.90
2022-10-06T04:15:12.538Z,99.90
2022-10-06T04:20:11.498Z,99.90
2022-10-06T04:25:10.507Z,99.90
2022-10-06T04:30:09.947Z,99.90
2022-10-06T04:35:10.369Z,99.90
2022-10-06T04:40:10.390Z,99.90
2022-10-06T04:45:11.959Z,99.90
2022-10-06T04:50:10.879Z,99.90
2022-10-06T04:55:10.992Z,99.90
2022-10-06T05:00:25.541Z,99.90
2022-10-06T05:05:26.015Z,99.90
2022-10-06T05:10:24.555Z,99.90
2022-10-06T05:15:24.081Z,99.90
2022-10-06T05:20:24.016Z,99.90
2022-10-06T05:25:22.835Z,99.90
2022-10-06T05:30:21.860Z,99.90
2022-10-06T05:35:21.290Z,99.90
2022-10-06T05:40:20.716Z,99.90
2022-10-06T05:45:19.713Z,99.90
2022-10-06T05:50:20.708Z,99.90
2022-10-06T05:55:20.000Z,99.90
2022-10-06T06:00:19.813Z,99.90
2022-10-06T06:05:18.617Z,99.90
2022-10-06T06:10:17.569Z,99.90
2022-10-06T06:15:36.326Z,99.90
2022-10-06T06:20:35.850Z,99.90
2022-10-06T06:25:34.430Z,99.90
2022-10-06T06:30:35.177Z,99.90
2022-10-06T06:35:34.797Z,99.90
2022-10-06T06:40:34.305Z,99.90
2022-10-06T06:45:35.349Z,99.90
2022-10-06T06:50:34.712Z,99.90
2022-10-06T06:55:34.106Z,99.90
2022-10-06T07:00:36.310Z,99.90
2022-10-06T07:05:35.544Z,99.90
2022-10-06T07:10:36.313Z,99.90
2022-10-06T07:15:53.842Z,99.90
2022-10-06T07:21:11.177Z,99.90
2022-10-06T07:26:10.789Z,99.90
2022-10-06T07:31:09.648Z,99.90
2022-10-06T07:36:09.478Z,99.90
2022-10-06T07:41:24.140Z,99.90
2022-10-06T07:46:11.558Z,99.90
2022-10-06T07:51:11.750Z,99.90
2022-10-06T07:56:14.721Z,99.90
2022-10-06T08:01:13.525Z,99.90
2022-10-06T08:06:14.881Z,99.90
2022-10-06T08:11:13.585Z,99.90
2022-10-06T08:16:12.558Z,99.90
2022-10-06T08:21:13.590Z,99.90
2022-10-06T08:26:12.540Z,99.90
2022-10-06T08:31:11.690Z,99.90
2022-10-06T08:36:10.500Z,99.90
2022-10-06T08:41:09.585Z,99.90
2022-10-06T08:46:09.306Z,99.90
2022-10-06T08:51:08.616Z,99.90
2022-10-06T08:56:07.540Z,99.90
2022-10-06T09:01:07.502Z,99.90
2022-10-06T09:06:06.502Z,99.90
2022-10-06T09:11:05.536Z,99.90
2022-10-06T09:16:07.021Z,99.90
2022-10-06T09:21:05.449Z,99.90
2022-10-06T09:26:04.610Z,99.80
2022-10-06T09:31:03.656Z,99.90
2022-10-06T09:36:04.797Z,99.00
2022-10-06T09:41:03.664Z,99.60
2022-10-06T09:46:02.714Z,97.80
2022-10-06T09:51:02.318Z,97.40
2022-10-06T09:56:02.205Z,97.70
2022-10-06T10:01:01.772Z,97.50
2022-10-06T10:06:01.867Z,97.40
2022-10-06T10:11:00.577Z,96.80
2022-10-06T10:15:59.569Z,96.70
2022-10-06T10:20:58.700Z,96.20
2022-10-06T10:25:58.133Z,94.40
2022-10-06T10:30:57.682Z,92.60
2022-10-06T10:35:56.927Z,92.90
2022-10-06T10:40:55.673Z,92.60
2022-10-06T10:45:54.690Z,90.20
2022-10-06T10:50:53.691Z,90.30
2022-10-06T10:55:52.711Z,89.50
2022-10-06T11:00:51.805Z,89.20
2022-10-06T11:05:50.550Z,87.20
2022-10-06T11:10:49.623Z,86.30
2022-10-06T11:15:48.755Z,85.40
2022-10-06T11:20:47.621Z,85.10
2022-10-06T11:25:46.783Z,85.60
2022-10-06T11:30:45.616Z,79.10
2022-10-06T11:35:44.799Z,77.30
2022-10-06T11:40:43.784Z,71.80
2022-10-06T11:45:42.930Z,71.80
2022-10-06T11:50:41.864Z,75.20
2022-10-06T11:55:40.651Z,76.60
2022-10-06T12:00:39.857Z,73.70
2022-10-06T12:05:55.702Z,75.40
2022-10-06T12:10:39.737Z,73.60
2022-10-06T12:20:39.555Z,73.50
2022-10-06T12:25:38.567Z,69.40
2022-10-06T12:30:37.908Z,71.50
2022-10-06T12:35:36.709Z,71.10
2022-10-06T12:40:36.910Z,68.00
2022-10-06T12:45:35.772Z,69.40
2022-10-06T12:50:34.598Z,70.10
2022-10-06T12:55:33.675Z,70.20
2022-10-06T13:00:34.493Z,69.00
2022-10-06T13:05:33.678Z,71.90
2022-10-06T13:10:32.864Z,71.00
2022-10-06T13:15:33.740Z,74.80
2022-10-06T13:20:32.672Z,74.50
2022-10-06T13:25:31.878Z,70.00
2022-10-06T13:30:33.855Z,70.30
2022-10-06T13:35:31.642Z,67.10
2022-10-06T13:40:47.536Z,66.10
2022-10-06T13:45:33.148Z,67.20
2022-10-06T13:50:31.648Z,65.30
2022-10-06T13:55:31.516Z,66.10
2022-10-06T14:00:30.919Z,63.70
2022-10-06T14:05:29.969Z,63.00
2022-10-06T14:10:29.601Z,63.80
2022-10-06T14:15:29.303Z,64.90
2022-10-06T14:20:27.772Z,69.20
2022-10-06T14:25:26.952Z,64.20
2022-10-06T14:30:25.781Z,64.00
2022-10-06T14:35:24.792Z,65.40
2022-10-06T14:40:23.840Z,64.00
2022-10-06T14:45:22.823Z,64.10
2022-10-06T14:50:21.639Z,65.60
2022-10-06T14:55:20.719Z,63.00
2022-10-06T15:00:20.244Z,63.00
2022-10-06T15:05:18.936Z,63.90
2022-10-06T15:10:17.844Z,65.00
2022-10-06T15:15:16.865Z,63.30
2022-10-06T15:20:16.884Z,65.70
2022-10-06T15:25:35.192Z,66.10
2022-10-06T15:30:33.699Z,63.60
2022-10-06T15:35:32.812Z,64.00
2022-10-06T15:40:31.995Z,65.00
2022-10-06T15:45:30.796Z,66.50
2022-10-06T15:50:29.791Z,67.20
2022-10-06T15:55:28.820Z,68.70
2022-10-06T16:00:27.811Z,68.40
2022-10-06T16:05:45.431Z,70.00
2022-10-06T16:10:43.871Z,70.40
2022-10-06T16:15:43.016Z,71.20
2022-10-06T16:20:41.908Z,74.20
2022-10-06T16:25:40.941Z,74.70
2022-10-06T16:30:39.925Z,75.80
2022-10-06T16:35:38.813Z,77.50
2022-10-06T16:39:24.897Z,77.30
2022-10-06T16:44:24.047Z,77.30
2022-10-06T16:49:24.167Z,78.70
2022-10-06T16:54:22.863Z,79.70
2022-10-06T16:59:21.985Z,81.60
2022-10-06T17:04:20.968Z,83.40
2022-10-06T17:09:19.783Z,84.70
2022-10-06T17:14:18.927Z,86.10
2022-10-06T17:19:17.948Z,87.50
2022-10-06T17:24:17.803Z,88.50
2022-10-06T17:29:18.149Z,89.60
2022-10-06T17:34:20.440Z,89.80
2022-10-06T17:39:18.218Z,90.30
2022-10-06T17:44:18.445Z,90.60
2022-10-06T17:49:16.803Z,91.00
2022-10-06T17:54:18.108Z,91.40
2022-10-06T17:59:17.008Z,91.50
2022-10-06T18:04:16.009Z,92.10
2022-10-06T18:09:14.816Z,92.50
2022-10-06T18:14:13.831Z,92.80
2022-10-06T18:19:12.851Z,93.30
2022-10-06T18:24:11.880Z,93.50
2022-10-06T18:29:10.926Z,93.60
2022-10-06T18:39:11.817Z,94.10
2022-10-06T18:44:10.864Z,94.30
2022-10-06T18:49:10.447Z,94.70
2022-10-06T18:54:08.982Z,95.00
2022-10-06T18:59:09.843Z,95.20
2022-10-06T19:04:09.724Z,95.40
2022-10-06T19:09:08.847Z,95.50
2022-10-06T19:14:07.956Z,95.80
2022-10-06T19:19:08.736Z,96.00
2022-10-06T19:24:07.855Z,96.00
2022-10-06T19:29:07.767Z,96.30
2022-10-06T19:34:08.169Z,96.50
2022-10-06T19:39:51.073Z,96.60
2022-10-06T19:44:49.885Z,96.80
2022-10-06T19:49:48.905Z,96.90
2022-10-06T19:54:50.986Z,97.10
2022-10-06T19:59:50.703Z,97.20
2022-10-06T20:04:50.404Z,97.10
2022-10-06T20:09:48.950Z,97.40
2022-10-06T20:14:47.884Z,97.50
2022-10-06T20:19:47.014Z,97.70
2022-10-06T20:24:47.375Z,97.90
2022-10-06T20:29:45.923Z,98.00
2022-10-06T20:34:45.213Z,98.10
2022-10-06T20:40:02.056Z,98.30
2022-10-06T20:45:00.983Z,98.40
2022-10-06T20:50:00.001Z,98.40
2022-10-06T20:54:59.008Z,98.60
2022-10-06T20:59:58.020Z,98.80
2022-10-06T21:04:57.537Z,98.90
2022-10-06T21:09:56.263Z,98.90
2022-10-06T21:14:56.711Z,98.90
2022-10-06T21:19:56.329Z,99.00
2022-10-06T21:24:55.152Z,99.20
2022-10-06T21:29:55.178Z,99.20
2022-10-06T21:34:55.614Z,99.20
2022-10-06T21:39:57.673Z,99.20
2022-10-06T21:44:56.301Z,99.30
2022-10-06T21:49:55.311Z,99.30
2022-10-06T21:54:54.116Z,99.30
2022-10-06T21:59:53.340Z,99.40
2022-10-06T22:04:52.348Z,99.40
2022-10-06T22:09:51.355Z,99.50
2022-10-06T22:14:50.375Z,99.60
2022-10-06T22:19:49.344Z,99.80
2022-10-06T22:24:48.297Z,99.70
2022-10-06T22:29:47.400Z,99.70
2022-10-06T22:34:46.616Z,99.80
2022-10-06T22:39:45.415Z,99.90
2022-10-06T22:44:44.639Z,99.90
2022-10-06T22:49:44.468Z,99.90
2022-10-06T22:54:43.205Z,99.90
2022-10-06T22:59:43.925Z,99.90
2022-10-06T23:04:43.552Z,99.90
2022-10-06T23:09:42.358Z,99.90
2022-10-06T23:14:41.573Z,99.90
2022-10-06T23:19:40.380Z,99.90
2022-10-06T23:24:39.390Z,99.90
2022-10-06T23:29:38.403Z,99.90
2022-10-06T23:34:37.316Z,99.90
2022-10-06T23:39:36.424Z,99.90
2022-10-06T23:44:35.469Z,99.90
2022-10-06T23:49:34.363Z,99.90
2022-10-06T23:54:33.458Z,99.90
2022-10-06T23:59:32.471Z,99.90
